createdAt,value
2022-10-31T00:00:49.938Z,1.13
2022-10-31T00:03:18.455Z,1.27
2022-10-31T00:05:48.738Z,0.80
2022-10-31T00:08:17.093Z,0.80
2022-10-31T00:10:45.867Z,0.80
2022-10-31T00:13:15.798Z,0.87
2022-10-31T00:15:43.805Z,1.03
2022-10-31T00:18:13.264Z,1.13
2022-10-31T00:20:41.263Z,0.80
2022-10-31T00:23:09.543Z,0.80
2022-10-31T00:25:39.615Z,1.17
2022-10-31T00:28:09.405Z,0.60
2022-10-31T00:30:37.382Z,1.50
2022-10-31T00:33:06.238Z,0.80
2022-10-31T00:35:35.657Z,1.10
2022-10-31T00:38:03.615Z,1.00
2022-10-31T00:40:31.546Z,0.90
2022-10-31T00:42:59.952Z,0.80
2022-10-31T00:45:28.049Z,0.80
2022-10-31T00:47:56.134Z,1.23
2022-10-31T00:50:24.224Z,0.70
2022-10-31T00:52:53.538Z,0.70
2022-10-31T00:55:21.464Z,0.77
2022-10-31T00:57:49.534Z,0.63
2022-10-31T01:00:18.315Z,0.70
2022-10-31T01:02:46.385Z,1.13
2022-10-31T01:05:15.131Z,0.63
2022-10-31T01:07:44.057Z,0.87
2022-10-31T01:10:13.734Z,1.03
2022-10-31T01:12:42.824Z,0.63
2022-10-31T01:15:12.239Z,0.93
2022-10-31T01:17:40.842Z,0.80
2022-10-31T01:20:10.541Z,0.63
2022-10-31T01:22:38.521Z,2.87
2022-10-31T01:25:07.857Z,1.10
2022-10-31T01:27:37.548Z,0.80
2022-10-31T01:30:06.701Z,0.80
2022-10-31T01:32:34.681Z,1.93
2022-10-31T01:35:02.672Z,1.53
2022-10-31T01:37:30.622Z,1.00
2022-10-31T01:39:58.567Z,1.07
2022-10-31T01:42:26.537Z,0.97
2022-10-31T01:45:02.169Z,1.13
2022-10-31T01:47:42.988Z,1.00
2022-10-31T01:50:22.356Z,1.00
2022-10-31T01:52:52.806Z,0.90
2022-10-31T01:55:27.688Z,0.93
2022-10-31T01:58:01.927Z,0.90
2022-10-31T02:00:31.706Z,1.03
2022-10-31T02:03:00.817Z,2.83
2022-10-31T02:05:31.591Z,0.70
2022-10-31T02:08:03.709Z,1.43
2022-10-31T02:10:34.531Z,3.30
2022-10-31T02:13:05.945Z,1.27
2022-10-31T02:15:36.873Z,0.60
2022-10-31T02:18:05.749Z,1.53
2022-10-31T02:20:38.124Z,1.13
2022-10-31T02:23:39.694Z,0.80
2022-10-31T02:26:24.777Z,0.70
2022-10-31T02:29:12.105Z,0.90
2022-10-31T02:31:47.603Z,0.97
2022-10-31T02:34:21.688Z,0.60
2022-10-31T02:36:58.491Z,0.97
2022-10-31T02:39:29.614Z,1.17
2022-10-31T02:42:09.020Z,1.17
2022-10-31T02:44:44.765Z,1.10
2022-10-31T02:47:18.145Z,0.83
2022-10-31T02:49:50.705Z,1.03
2022-10-31T02:52:23.045Z,1.20
2022-10-31T02:54:51.247Z,0.70
2022-10-31T02:57:23.362Z,0.80
2022-10-31T02:59:56.302Z,1.03
2022-10-31T03:02:55.819Z,0.70
2022-10-31T03:05:43.039Z,0.83
2022-10-31T03:08:19.622Z,0.80
2022-10-31T03:10:54.023Z,1.10
2022-10-31T03:13:31.622Z,1.50
2022-10-31T03:16:08.747Z,1.03
2022-10-31T03:18:42.126Z,0.90
2022-10-31T03:21:15.399Z,1.20
2022-10-31T03:23:45.978Z,0.80
2022-10-31T03:26:16.135Z,1.07
2022-10-31T03:28:56.699Z,0.70
2022-10-31T03:31:29.789Z,0.93
2022-10-31T03:34:02.286Z,1.10
2022-10-31T03:36:32.354Z,1.47
2022-10-31T03:39:03.882Z,1.17
2022-10-31T03:41:37.037Z,0.50
2022-10-31T03:44:09.069Z,0.90
2022-10-31T03:46:37.248Z,0.90
2022-10-31T03:49:06.899Z,0.70
2022-10-31T03:51:41.927Z,1.20
2022-10-31T03:54:15.734Z,1.10
2022-10-31T03:56:50.411Z,1.23
2022-10-31T03:59:23.335Z,1.40
2022-10-31T04:01:55.243Z,0.70
2022-10-31T04:04:24.818Z,1.00
2022-10-31T04:06:54.313Z,0.80
2022-10-31T04:09:23.630Z,0.80
2022-10-31T04:11:54.907Z,0.87
2022-10-31T04:14:24.435Z,0.90
2022-10-31T04:16:52.404Z,0.70
2022-10-31T04:19:20.445Z,0.80
2022-10-31T04:21:49.787Z,1.13
2022-10-31T04:24:17.761Z,0.70
2022-10-31T04:26:45.739Z,1.10
2022-10-31T04:29:13.687Z,0.83
2022-10-31T04:31:41.662Z,1.10
2022-10-31T04:34:09.694Z,0.90
2022-10-31T04:36:37.726Z,1.10
2022-10-31T04:39:07.119Z,1.17
2022-10-31T04:41:35.075Z,0.80
2022-10-31T04:44:03.045Z,0.70
2022-10-31T04:46:31.018Z,0.87
2022-10-31T04:48:58.973Z,1.20
2022-10-31T04:51:26.945Z,1.33
2022-10-31T04:53:54.948Z,0.60
2022-10-31T04:56:24.268Z,1.07
2022-10-31T04:58:52.282Z,1.33
2022-10-31T05:01:20.467Z,1.20
2022-10-31T05:03:48.519Z,0.67
2022-10-31T05:06:17.457Z,1.00
2022-10-31T05:08:45.434Z,0.80
2022-10-31T05:11:13.386Z,0.67
2022-10-31T05:13:42.736Z,1.33
2022-10-31T05:16:10.686Z,0.70
2022-10-31T05:18:38.667Z,1.27
2022-10-31T05:21:06.851Z,0.90
2022-10-31T05:23:34.839Z,1.17
2022-10-31T05:26:02.832Z,0.87
2022-10-31T05:28:30.820Z,1.33
2022-10-31T05:31:00.145Z,1.00
2022-10-31T05:33:28.101Z,1.57
2022-10-31T05:35:56.080Z,0.73
2022-10-31T05:38:24.018Z,0.90
2022-10-31T05:40:51.975Z,0.80
2022-10-31T05:43:19.915Z,1.23
2022-10-31T05:45:47.844Z,0.80
2022-10-31T05:48:17.167Z,0.97
2022-10-31T05:50:45.126Z,0.80
2022-10-31T05:53:13.250Z,1.00
2022-10-31T05:55:41.637Z,0.60
2022-10-31T05:58:09.651Z,1.43
2022-10-31T06:00:37.631Z,0.83
2022-10-31T06:05:42.078Z,0.90
2022-10-31T06:08:10.025Z,0.90
2022-10-31T06:10:37.999Z,0.50
2022-10-31T06:13:07.517Z,0.93
2022-10-31T06:15:35.488Z,0.80
2022-10-31T06:18:05.438Z,0.73
2022-10-31T06:20:34.400Z,0.67
2022-10-31T06:23:04.529Z,0.70
2022-10-31T06:25:33.809Z,0.60
2022-10-31T06:28:01.833Z,0.60
2022-10-31T06:30:29.909Z,1.10
2022-10-31T06:33:03.961Z,1.13
2022-10-31T06:35:31.947Z,0.60
2022-10-31T06:38:00.299Z,0.70
2022-10-31T06:40:29.821Z,1.07
2022-10-31T06:43:01.351Z,0.87
2022-10-31T06:45:30.051Z,1.20
2022-10-31T06:50:46.766Z,1.73
2022-10-31T06:53:15.262Z,0.60
2022-10-31T06:55:44.994Z,1.23
2022-10-31T06:58:13.362Z,0.60
2022-10-31T07:00:41.435Z,1.00
2022-10-31T07:03:12.936Z,0.77
2022-10-31T07:05:41.755Z,0.90
2022-10-31T07:08:11.594Z,1.40
2022-10-31T07:10:41.193Z,1.03
2022-10-31T07:13:13.618Z,1.13
2022-10-31T07:15:43.547Z,0.80
2022-10-31T07:18:13.266Z,0.77
2022-10-31T07:20:41.252Z,1.73
2022-10-31T07:23:10.963Z,1.20
2022-10-31T07:25:39.156Z,1.07
2022-10-31T07:28:07.138Z,1.50
2022-10-31T07:30:36.644Z,1.17
2022-10-31T07:33:05.094Z,1.10
2022-10-31T07:35:35.703Z,0.70
2022-10-31T07:38:11.160Z,0.93
2022-10-31T07:40:39.362Z,2.03
2022-10-31T07:43:11.540Z,1.27
2022-10-31T07:45:43.267Z,1.30
2022-10-31T07:48:11.221Z,1.30
2022-10-31T07:50:40.221Z,1.97
2022-10-31T07:53:10.269Z,1.97
2022-10-31T07:55:39.078Z,1.40
2022-10-31T07:58:08.601Z,2.97
2022-10-31T08:00:37.889Z,1.73
2022-10-31T08:03:08.678Z,1.20
2022-10-31T08:05:37.278Z,1.57
2022-10-31T08:08:06.051Z,1.30
2022-10-31T08:10:34.813Z,2.00
2022-10-31T08:13:04.274Z,1.87
2022-10-31T08:15:32.913Z,1.80
2022-10-31T08:18:01.153Z,0.93
2022-10-31T08:20:30.867Z,1.50
2022-10-31T08:22:59.917Z,1.50
2022-10-31T08:25:31.049Z,1.50
2022-10-31T08:28:02.525Z,1.33
2022-10-31T08:30:32.031Z,1.43
2022-10-31T08:33:04.484Z,1.20
2022-10-31T08:35:34.611Z,1.77
2022-10-31T08:38:03.449Z,2.10
2022-10-31T08:40:33.688Z,1.37
2022-10-31T08:43:03.847Z,3.20
2022-10-31T08:45:33.618Z,2.63
2022-10-31T08:48:02.726Z,1.83
2022-10-31T08:50:34.279Z,1.50
2022-10-31T08:53:05.862Z,2.47
2022-10-31T08:55:36.284Z,2.67
2022-10-31T08:58:05.380Z,2.47
2022-10-31T09:00:33.813Z,2.27
2022-10-31T09:03:03.895Z,0.90
2022-10-31T09:05:33.340Z,2.50
2022-10-31T09:08:03.253Z,2.10
2022-10-31T09:10:32.308Z,1.63
2022-10-31T09:13:00.989Z,2.40
2022-10-31T09:15:30.071Z,1.87
2022-10-31T09:17:58.152Z,2.20
2022-10-31T09:20:26.495Z,1.50
2022-10-31T09:23:00.291Z,1.53
2022-10-31T09:25:29.077Z,2.20
2022-10-31T09:27:59.723Z,1.87
2022-10-31T09:30:30.161Z,1.80
2022-10-31T09:32:58.631Z,2.20
2022-10-31T09:35:27.233Z,2.27
2022-10-31T09:38:00.801Z,1.90
2022-10-31T09:40:35.593Z,1.70
2022-10-31T09:43:12.586Z,1.60
2022-10-31T09:45:49.988Z,1.73
2022-10-31T09:48:28.786Z,2.00
2022-10-31T09:50:59.665Z,1.43
2022-10-31T09:53:36.933Z,2.17
2022-10-31T09:56:09.302Z,1.73
2022-10-31T09:58:44.458Z,1.80
2022-10-31T10:01:25.573Z,2.43
2022-10-31T10:03:58.623Z,1.10
2022-10-31T10:06:30.512Z,2.20
2022-10-31T10:08:59.853Z,2.70
2022-10-31T10:11:43.374Z,3.33
2022-10-31T10:14:24.143Z,2.17
2022-10-31T10:17:04.446Z,2.13
2022-10-31T10:19:56.040Z,2.23
2022-10-31T10:22:32.545Z,3.67
2022-10-31T10:25:16.116Z,2.07
2022-10-31T10:28:00.513Z,2.10
2022-10-31T10:33:01.752Z,2.33
2022-10-31T10:35:33.363Z,2.50
2022-10-31T10:38:06.309Z,2.43
2022-10-31T10:40:35.714Z,2.23
2022-10-31T10:43:23.592Z,2.73
2022-10-31T10:46:17.702Z,3.00
2022-10-31T10:48:47.453Z,2.47
2022-10-31T10:51:46.367Z,2.20
2022-10-31T10:54:34.188Z,2.70
2022-10-31T10:57:15.266Z,2.60
2022-10-31T10:59:43.268Z,2.50
2022-10-31T11:02:19.922Z,3.30
2022-10-31T11:04:52.305Z,3.37
2022-10-31T11:07:20.539Z,2.60
2022-10-31T11:09:48.663Z,3.23
2022-10-31T11:12:23.999Z,4.13
2022-10-31T11:14:55.397Z,3.30
2022-10-31T11:17:31.419Z,3.37
2022-10-31T11:20:05.469Z,4.07
2022-10-31T11:22:33.764Z,3.20
2022-10-31T11:25:01.726Z,3.80
2022-10-31T11:27:31.138Z,3.73
2022-10-31T11:30:07.534Z,2.90
2022-10-31T11:32:35.544Z,3.97
2022-10-31T11:35:10.830Z,4.60
2022-10-31T11:37:45.616Z,4.93
2022-10-31T11:40:19.446Z,4.80
2022-10-31T11:42:49.940Z,3.77
2022-10-31T11:45:29.414Z,4.67
2022-10-31T11:48:00.080Z,4.00
2022-10-31T11:50:30.959Z,4.47
2022-10-31T11:52:58.972Z,3.83
2022-10-31T11:55:35.273Z,4.80
2022-10-31T11:58:05.401Z,4.07
2022-10-31T12:00:35.257Z,3.63
2022-10-31T12:03:18.085Z,4.57
2022-10-31T12:05:49.466Z,4.30
2022-10-31T12:08:17.434Z,4.30
2022-10-31T12:10:53.212Z,3.77
2022-10-31T12:13:35.254Z,4.60
2022-10-31T12:16:10.827Z,3.63
2022-10-31T12:19:02.991Z,4.00
2022-10-31T12:22:00.755Z,3.50
2022-10-31T12:24:40.326Z,3.43
2022-10-31T12:27:22.149Z,4.27
2022-10-31T12:30:04.080Z,4.10
2022-10-31T12:32:42.792Z,3.60
2022-10-31T12:35:29.713Z,5.43
2022-10-31T12:38:13.884Z,3.63
2022-10-31T12:40:55.651Z,3.90
2022-10-31T12:43:37.313Z,4.07
2022-10-31T12:46:12.375Z,4.70
2022-10-31T12:49:19.067Z,3.90
2022-10-31T12:51:58.236Z,4.97
2022-10-31T12:54:42.832Z,3.87
2022-10-31T12:57:24.850Z,3.33
2022-10-31T12:59:59.696Z,3.70
2022-10-31T13:02:32.324Z,5.27
2022-10-31T13:05:04.612Z,4.10
2022-10-31T13:07:39.899Z,4.37
2022-10-31T13:10:17.263Z,4.57
2022-10-31T13:12:47.737Z,4.80
2022-10-31T13:15:20.804Z,4.40
2022-10-31T13:17:53.479Z,3.70
2022-10-31T13:20:28.626Z,3.80
2022-10-31T13:23:02.383Z,3.20
2022-10-31T13:25:33.581Z,5.97
2022-10-31T13:28:05.756Z,5.87
2022-10-31T13:30:38.641Z,5.63
2022-10-31T13:33:13.703Z,4.63
2022-10-31T13:35:47.789Z,4.17
2022-10-31T13:38:21.680Z,4.43
2022-10-31T13:40:56.177Z,4.47
2022-10-31T13:43:37.057Z,5.00
2022-10-31T13:46:19.930Z,5.10
2022-10-31T13:48:49.255Z,3.83
2022-10-31T13:51:29.256Z,4.60
2022-10-31T13:54:01.738Z,5.23
2022-10-31T13:56:32.387Z,4.40
2022-10-31T13:59:04.153Z,4.67
2022-10-31T14:01:34.374Z,5.10
2022-10-31T14:04:13.825Z,3.17
2022-10-31T14:06:47.819Z,4.70
2022-10-31T14:09:26.455Z,4.50
2022-10-31T14:11:55.543Z,4.30
2022-10-31T14:14:28.702Z,3.30
2022-10-31T14:16:59.833Z,4.33
2022-10-31T14:19:29.192Z,5.90
2022-10-31T14:21:57.233Z,3.40
2022-10-31T14:24:36.114Z,4.40
2022-10-31T14:27:06.864Z,2.90
2022-10-31T14:29:35.958Z,4.20
2022-10-31T14:32:13.370Z,3.80
2022-10-31T14:34:44.461Z,4.17
2022-10-31T14:37:29.309Z,4.70
2022-10-31T14:40:19.308Z,3.83
2022-10-31T14:43:21.807Z,4.03
2022-10-31T14:45:58.381Z,4.27
2022-10-31T14:49:01.347Z,3.50
2022-10-31T14:51:37.955Z,5.03
2022-10-31T14:54:08.557Z,3.03
2022-10-31T14:56:43.762Z,4.07
2022-10-31T14:59:17.206Z,4.10
2022-10-31T15:01:56.878Z,3.67
2022-10-31T15:04:27.476Z,4.60
2022-10-31T15:07:02.574Z,3.93
2022-10-31T15:09:32.974Z,3.90
2022-10-31T15:12:01.769Z,5.57
2022-10-31T15:14:31.510Z,3.97
2022-10-31T15:17:03.480Z,4.70
2022-10-31T15:19:34.779Z,4.83
2022-10-31T15:22:04.193Z,4.57
2022-10-31T15:24:36.103Z,4.77
2022-10-31T15:27:05.511Z,3.70
2022-10-31T15:29:34.002Z,4.27
2022-10-31T15:32:04.067Z,4.60
2022-10-31T15:34:37.818Z,4.47
2022-10-31T15:37:07.302Z,4.50
2022-10-31T15:39:35.417Z,3.73
2022-10-31T15:42:03.809Z,4.53
2022-10-31T15:44:35.230Z,4.80
2022-10-31T15:47:07.510Z,4.20
2022-10-31T15:49:39.004Z,3.63
2022-10-31T15:52:15.821Z,3.43
2022-10-31T15:54:50.199Z,5.67
2022-10-31T15:57:18.813Z,5.60
2022-10-31T15:59:49.277Z,4.03
2022-10-31T16:02:21.590Z,4.57
2022-10-31T16:04:57.368Z,3.80
2022-10-31T16:07:27.603Z,3.07
2022-10-31T16:09:57.727Z,2.70
2022-10-31T16:12:35.882Z,4.13
2022-10-31T16:15:05.418Z,4.37
2022-10-31T16:17:34.138Z,4.30
2022-10-31T16:20:05.901Z,3.60
2022-10-31T16:22:38.295Z,3.67
2022-10-31T16:25:11.821Z,3.27
2022-10-31T16:27:40.795Z,3.50
2022-10-31T16:30:38.796Z,3.90
2022-10-31T16:33:07.903Z,3.10
2022-10-31T16:35:37.597Z,4.40
2022-10-31T16:38:07.564Z,4.00
2022-10-31T16:40:36.936Z,3.20
2022-10-31T16:43:05.224Z,2.37
2022-10-31T16:45:35.202Z,2.50
2022-10-31T16:48:07.667Z,3.07
2022-10-31T16:50:35.642Z,2.30
2022-10-31T16:53:18.969Z,2.50
2022-10-31T16:55:53.672Z,2.00
2022-10-31T16:58:25.930Z,2.37
2022-10-31T17:00:54.700Z,1.70
2022-10-31T17:03:22.789Z,2.43
2022-10-31T17:05:50.949Z,2.73
2022-10-31T17:08:18.918Z,1.90
2022-10-31T17:10:49.997Z,2.27
2022-10-31T17:13:21.114Z,2.50
2022-10-31T17:15:52.414Z,2.57
2022-10-31T17:18:26.039Z,1.43
2022-10-31T17:20:59.519Z,2.03
2022-10-31T17:23:28.029Z,2.77
2022-10-31T17:25:57.735Z,2.23
2022-10-31T17:28:26.572Z,2.17
2022-10-31T17:30:56.168Z,2.50
2022-10-31T17:33:24.151Z,2.43
2022-10-31T17:35:52.150Z,1.40
2022-10-31T17:38:20.120Z,2.20
2022-10-31T17:43:26.990Z,2.40
2022-10-31T17:45:54.976Z,1.90
2022-10-31T17:48:22.931Z,1.50
2022-10-31T17:50:50.872Z,1.93
2022-10-31T17:53:18.855Z,2.17
2022-10-31T17:55:47.013Z,2.00
2022-10-31T17:58:15.375Z,2.00
2022-10-31T18:00:47.423Z,1.97
2022-10-31T18:03:18.411Z,3.07
2022-10-31T18:05:53.517Z,2.20
2022-10-31T18:08:21.561Z,1.67
2022-10-31T18:10:49.502Z,2.67
2022-10-31T18:13:17.466Z,2.60
2022-10-31T18:15:46.789Z,3.10
2022-10-31T18:18:14.771Z,2.00
2022-10-31T18:20:42.741Z,2.27
2022-10-31T18:23:10.917Z,2.40
2022-10-31T18:25:40.889Z,2.83
2022-10-31T18:28:08.839Z,2.77
2022-10-31T18:30:40.819Z,2.23
2022-10-31T18:33:10.315Z,2.23
2022-10-31T18:35:39.000Z,2.63
2022-10-31T18:38:08.294Z,2.57
2022-10-31T18:40:36.893Z,2.43
2022-10-31T18:43:05.821Z,2.40
2022-10-31T18:45:46.530Z,2.07
2022-10-31T18:48:18.138Z,3.03
2022-10-31T18:50:46.817Z,3.07
2022-10-31T18:53:14.826Z,2.27
2022-10-31T18:55:47.433Z,2.33
2022-10-31T18:58:18.399Z,2.10
2022-10-31T19:00:47.074Z,2.50
2022-10-31T19:03:18.773Z,2.17
2022-10-31T19:05:48.794Z,2.97
2022-10-31T19:08:16.856Z,1.87
2022-10-31T19:10:44.899Z,1.80
2022-10-31T19:13:12.853Z,2.40
2022-10-31T19:15:40.834Z,2.90
2022-10-31T19:18:08.797Z,1.93
2022-10-31T19:20:39.517Z,2.47
2022-10-31T19:23:07.900Z,3.00
2022-10-31T19:25:35.884Z,1.90
2022-10-31T19:28:04.350Z,2.27
2022-10-31T19:30:32.627Z,1.10
2022-10-31T19:33:00.566Z,1.53
2022-10-31T19:35:28.681Z,1.57
2022-10-31T19:37:58.739Z,2.17
2022-10-31T19:40:27.006Z,1.80
2022-10-31T19:42:54.960Z,3.67
2022-10-31T19:45:22.902Z,2.67
2022-10-31T19:47:50.861Z,1.43
2022-10-31T19:50:18.858Z,1.60
2022-10-31T19:52:47.289Z,1.50
2022-10-31T19:55:17.111Z,1.43
2022-10-31T19:58:02.136Z,2.43
2022-10-31T20:00:30.249Z,2.90
2022-10-31T20:02:58.368Z,3.73
2022-10-31T20:05:26.569Z,4.57
2022-10-31T20:07:54.506Z,9.47
2022-10-31T20:10:23.895Z,11.00
2022-10-31T20:12:52.009Z,10.23
2022-10-31T20:15:19.933Z,7.07
2022-10-31T20:17:47.875Z,8.27
2022-10-31T20:20:16.013Z,7.90
2022-10-31T20:22:44.707Z,11.77
2022-10-31T20:25:12.633Z,7.20
2022-10-31T20:27:41.938Z,6.83
2022-10-31T20:30:10.748Z,10.40
2022-10-31T20:32:38.694Z,10.43
2022-10-31T20:35:07.335Z,10.30
2022-10-31T20:37:35.282Z,5.83
2022-10-31T20:40:03.707Z,8.20
2022-10-31T20:42:31.648Z,6.47
2022-10-31T20:45:01.026Z,5.60
2022-10-31T20:47:28.941Z,5.67
2022-10-31T20:49:56.869Z,5.07
2022-10-31T20:52:24.809Z,3.77
2022-10-31T20:54:52.727Z,13.93
2022-10-31T20:57:20.724Z,13.00
2022-10-31T20:59:48.626Z,7.87
2022-10-31T21:02:17.988Z,8.30
2022-10-31T21:04:46.069Z,9.77
2022-10-31T21:07:13.993Z,5.57
2022-10-31T21:09:41.959Z,5.77
2022-10-31T21:12:09.970Z,7.90
2022-10-31T21:14:38.130Z,8.40
2022-10-31T21:17:06.821Z,6.60
2022-10-31T21:19:36.180Z,9.00
2022-10-31T21:22:04.448Z,6.23
2022-10-31T21:24:32.478Z,6.10
2022-10-31T21:27:02.601Z,6.67
2022-10-31T21:29:30.873Z,5.67
2022-10-31T21:31:58.825Z,7.00
2022-10-31T21:34:26.757Z,7.33
2022-10-31T21:36:56.367Z,8.23
2022-10-31T21:39:24.325Z,9.70
2022-10-31T21:41:52.264Z,11.70
2022-10-31T21:44:20.404Z,11.83
2022-10-31T21:46:48.632Z,8.60
2022-10-31T21:49:16.621Z,6.53
2022-10-31T21:51:46.747Z,6.77
2022-10-31T21:54:27.219Z,4.37
2022-10-31T21:56:55.962Z,4.60
2022-10-31T21:59:24.029Z,3.90
2022-10-31T22:01:52.297Z,4.87
2022-10-31T22:04:20.827Z,5.80
2022-10-31T22:06:48.836Z,5.90
2022-10-31T22:09:19.698Z,3.17
2022-10-31T22:11:48.003Z,4.13
2022-10-31T22:14:16.374Z,4.37
2022-10-31T22:16:44.693Z,3.07
2022-10-31T22:19:13.980Z,7.03
2022-10-31T22:21:43.789Z,3.93
2022-10-31T22:24:12.213Z,3.63
2022-10-31T22:26:41.563Z,4.23
2022-10-31T22:29:15.899Z,2.20
2022-10-31T22:31:45.536Z,4.47
2022-10-31T22:34:15.152Z,2.67
2022-10-31T22:36:44.313Z,3.37
2022-10-31T22:39:13.918Z,3.00
2022-10-31T22:41:43.219Z,3.57
2022-10-31T22:44:11.232Z,3.47
2022-10-31T22:46:40.340Z,2.40
2022-10-31T22:49:10.846Z,1.80
2022-10-31T22:51:40.662Z,2.43
2022-10-31T22:54:13.156Z,3.33
2022-10-31T22:56:41.294Z,2.90
2022-10-31T22:59:13.647Z,1.67
2022-10-31T23:01:42.060Z,1.97
2022-10-31T23:06:43.568Z,2.33
2022-10-31T23:09:14.710Z,1.67
2022-10-31T23:11:43.043Z,2.27
2022-10-31T23:14:18.574Z,2.77
2022-10-31T23:16:48.560Z,2.27
2022-10-31T23:19:19.158Z,2.77
2022-10-31T23:21:56.149Z,2.20
2022-10-31T23:24:27.312Z,2.00
2022-10-31T23:27:10.669Z,2.30
2022-10-31T23:29:46.175Z,1.70
2022-10-31T23:32:19.559Z,1.73
2022-10-31T23:34:48.596Z,2.47
2022-10-31T23:37:17.503Z,1.60
2022-10-31T23:39:45.574Z,1.83
2022-10-31T23:42:15.511Z,2.73
2022-10-31T23:44:44.786Z,2.40
2022-10-31T23:47:13.501Z,2.20
2022-10-31T23:49:41.468Z,1.77
2022-10-31T23:52:09.825Z,1.93
2022-10-31T23:54:38.186Z,1.30
2022-10-31T23:57:06.764Z,2.67
2022-10-31T23:59:34.782Z,2.27
